ADDS METAR Data INFO
IDs: Format: Raw Decoded Include TAF

Data at: 0202 UTC 19 Jul 2018

KPRX 190156Z AUTO 10007KT 10SM CLR 31/24 A2986 RMK AO2 SLP115 T03060244
KPRX 190056Z AUTO 11006KT 10SM CLR 33/24 A2986 RMK AO2 SLP113 T03280244
KPRX 182356Z AUTO 09005KT 10SM CLR 33/24 A2986 RMK AO2 SLP115 T03330244 10378 20333 56015
KPRX 182256Z AUTO 08008KT 10SM CLR 34/23 A2988 RMK AO2 SLP119 T03440233
KPRX 182156Z AUTO 16004KT 10SM CLR 37/22 A2988 RMK AO2 SLP122 T03670217
KPRX 182056Z AUTO 00000KT 10SM CLR 37/22 A2991 RMK AO2 SLP129 T03720222 58017
KPRX 181956Z AUTO 14004KT 10SM CLR 36/22 A2993 RMK AO2 SLP135 T03560222
KPRX 181856Z AUTO 23007KT 10SM CLR 36/22 A2994 RMK AO2 SLP140 T03560222
KPRX 181756Z AUTO 21009KT 10SM CLR 34/22 A2996 RMK AO2 SLP146 T03440222 10344 20250 58011
KPRX 181656Z AUTO 20007KT 10SM CLR 33/23 A2997 RMK AO2 SLP151 T03280228
KPRX 181556Z AUTO 19007KT 10SM CLR 29/23 A2998 RMK AO2 SLP157 T02890233
KPRX 181456Z AUTO 19005KT 10SM BKN110 27/23 A2999 RMK AO2 SLP158 T02720228 50003
KPRX 181356Z AUTO 00000KT 10SM OVC100 27/23 A3000 RMK AO2 SLP162 T02670228
KPRX 181256Z AUTO 05006KT 10SM OVC110 26/22 A3000 RMK AO2 SLP163 T02560222
KPRX 181156Z AUTO 11006KT 10SM FEW120 25/22 A2998 RMK AO2 SLP154 T02500217 10278 20250 53003
KPRX 181056Z AUTO 16006KT 10SM CLR 26/21 A2997 RMK AO2 SLP149 T02560211
KPRX 180956Z AUTO 15005KT 10SM CLR 25/22 A2996 RMK AO2 SLP147 T02500217
KPRX 180856Z AUTO 06006KT 10SM CLR 25/21 A2997 RMK AO2 SLP150 T02500211 53002
KPRX 180756Z AUTO 13005KT 10SM CLR 26/21 A2996 RMK AO2 SLP147 T02610211
KPRX 180656Z AUTO 14006KT 10SM CLR 27/22 A2996 RMK AO2 SLP148 T02720217
KPRX 180556Z AUTO 14005KT 10SM CLR 28/22 A2996 RMK AO2 SLP149 T02780217 10361 20278 403780239 50001
KPRX 180456Z AUTO 11005KT 10SM CLR 28/23 A2997 RMK AO2 SLP151 T02830228
KPRX 180356Z AUTO 10005KT 10SM CLR 29/23 A2998 RMK AO2 SLP153 T02940228 TSNO
KPRX 180256Z AUTO 09005KT 10SM CLR 31/23 A2996 RMK AO2 SLP147 T03110233 53008
KPRX 180056Z AUTO 14004KT 9SM CLR 34/23 A2994 RMK AO2 SLP140 T03440228
KPRX 172356Z AUTO 07003KT 9SM CLR 36/21 A2993 RMK AO2 SLP139 T03610211 10378 20322 56012
KPRX 172256Z AUTO 31004KT 9SM CLR 37/21 A2994 RMK AO2 SLP141 T03720211
KPRX 172156Z AUTO 31003KT 9SM CLR 37/21 A2995 RMK AO2 SLP142 T03670211
KPRX 172056Z AUTO 00000KT 8SM CLR 37/21 A2997 RMK AO2 SLP151 T03670211 56024
KPRX 171956Z AUTO VRB05KT 8SM CLR 36/21 A3000 RMK AO2 SLP160 T03560211
KPRX 171856Z AUTO 17008KT 8SM CLR 34/22 A3001 RMK AO2 SLP166 T03390217
KPRX 171756Z AUTO 20004KT 8SM CLR 32/22 A3004 RMK AO2 SLP177 60000 T03220217 10328 20244 58003
KPRX 171656Z AUTO 23004KT 9SM FEW042 29/22 A3007 RMK AO2 RAB19E52 SLP186 P0000 T02940222
KPRX 171556Z AUTO 30005KT 8SM BKN090 30/22 A3007 RMK AO2 SLP186 T03000217
KPRX 171456Z AUTO 25007KT 8SM CLR 29/22 A3005 RMK AO2 SLP180 T02940217 53013